sensor_id;sensor_type;location;lat;lon;timestamp;pressure;altitude;pressure_sealevel;temperature;humidity
7662;BME280;30314;48.184;11.510;2023-02-28T00:01:04;96389.78;;;-2.79;96.08
7662;BME280;30314;48.184;11.510;2023-02-28T00:03:31;96381.75;;;-2.84;96.47
7662;BME280;30314;48.184;11.510;2023-02-28T00:06:03;96377.53;;;-2.92;96.17
7662;BME280;30314;48.184;11.510;2023-02-28T00:08:29;96386.69;;;-2.89;96.03
7662;BME280;30314;48.184;11.510;2023-02-28T00:10:56;96378.50;;;-2.93;96.25
7662;BME280;30314;48.184;11.510;2023-02-28T00:13:22;96387.13;;;-2.86;96.38
7662;BME280;30314;48.184;11.510;2023-02-28T00:15:58;96379.00;;;-2.82;94.87
7662;BME280;30314;48.184;11.510;2023-02-28T00:18:25;96390.94;;;-2.81;95.67
7662;BME280;30314;48.184;11.510;2023-02-28T00:20:52;96358.16;;;-3.03;96.48
7662;BME280;30314;48.184;11.510;2023-02-28T00:23:18;96379.69;;;-2.95;96.50
7662;BME280;30314;48.184;11.510;2023-02-28T00:25:45;96372.84;;;-3.03;96.79
7662;BME280;30314;48.184;11.510;2023-02-28T00:28:12;96379.50;;;-2.94;96.77
7662;BME280;30314;48.184;11.510;2023-02-28T00:30:38;96355.53;;;-3.09;96.06
7662;BME280;30314;48.184;11.510;2023-02-28T00:33:05;96362.63;;;-3.18;98.89
7662;BME280;30314;48.184;11.510;2023-02-28T00:35:31;96378.28;;;-3.20;98.21
7662;BME280;30314;48.184;11.510;2023-02-28T00:37:58;96381.13;;;-3.15;98.01
7662;BME280;30314;48.184;11.510;2023-02-28T00:40:26;96380.59;;;-3.03;97.80
7662;BME280;30314;48.184;11.510;2023-02-28T00:42:53;96369.66;;;-3.05;96.91
7662;BME280;30314;48.184;11.510;2023-02-28T00:45:19;96331.53;;;-3.47;99.08
7662;BME280;30314;48.184;11.510;2023-02-28T00:47:45;96382.97;;;-3.08;99.23
7662;BME280;30314;48.184;11.510;2023-02-28T00:50:18;96380.16;;;-3.14;98.82
7662;BME280;30314;48.184;11.510;2023-02-28T00:52:45;96382.84;;;-3.22;99.64
7662;BME280;30314;48.184;11.510;2023-02-28T00:55:13;96382.22;;;-3.24;100.00
7662;BME280;30314;48.184;11.510;2023-02-28T00:57:40;96375.34;;;-3.38;100.00
7662;BME280;30314;48.184;11.510;2023-02-28T01:00:07;96373.69;;;-3.46;100.00
7662;BME280;30314;48.184;11.510;2023-02-28T01:02:34;96382.47;;;-3.41;100.00
7662;BME280;30314;48.184;11.510;2023-02-28T01:05:01;96375.69;;;-3.42;100.00
7662;BME280;30314;48.184;11.510;2023-02-28T01:07:29;96380.63;;;-3.25;100.00
7662;BME280;30314;48.184;11.510;2023-02-28T01:09:55;96371.16;;;-3.39;100.00
7662;BME280;30314;48.184;11.510;2023-02-28T01:12:24;96359.59;;;-3.44;100.00
7662;BME280;30314;48.184;11.510;2023-02-28T01:14:50;96345.25;;;-3.68;100.00
7662;BME280;30314;48.184;11.510;2023-02-28T01:17:16;96340.75;;;-3.59;100.00
7662;BME280;30314;48.184;11.510;2023-02-28T01:19:43;96363.47;;;-3.55;100.00
7662;BME280;30314;48.184;11.510;2023-02-28T01:22:10;96352.03;;;-3.45;100.00
7662;BME280;30314;48.184;11.510;2023-02-28T01:24:37;96366.59;;;-3.59;100.00
7662;BME280;30314;48.184;11.510;2023-02-28T01:27:03;96359.72;;;-3.52;100.00
7662;BME280;30314;48.184;11.510;2023-02-28T01:29:30;96351.06;;;-3.44;100.00
7662;BME280;30314;48.184;11.510;2023-02-28T01:31:56;96320.97;;;-3.74;100.00
7662;BME280;30314;48.184;11.510;2023-02-28T01:34:23;96358.34;;;-3.48;100.00
7662;BME280;30314;48.184;11.510;2023-02-28T01:36:50;96343.84;;;-3.49;100.00
7662;BME280;30314;48.184;11.510;2023-02-28T01:39:18;96353.56;;;-3.51;100.00
7662;BME280;30314;48.184;11.510;2023-02-28T01:41:44;96346.06;;;-3.67;100.00
7662;BME280;30314;48.184;11.510;2023-02-28T01:47:15;96356.38;;;-3.67;100.00
7662;BME280;30314;48.184;11.510;2023-02-28T01:49:41;96354.75;;;-3.69;100.00
7662;BME280;30314;48.184;11.510;2023-02-28T01:52:10;96334.84;;;-3.75;100.00
7662;BME280;30314;48.184;11.510;2023-02-28T01:54:41;96342.72;;;-3.61;100.00
7662;BME280;30314;48.184;11.510;2023-02-28T01:57:16;96349.72;;;-3.77;100.00
7662;BME280;30314;48.184;11.510;2023-02-28T01:59:59;96336.81;;;-3.77;100.00
7662;BME280;30314;48.184;11.510;2023-02-28T02:02:38;96349.34;;;-3.74;100.00
7662;BME280;30314;48.184;11.510;2023-02-28T02:05:11;96346.78;;;-3.74;100.00
7662;BME280;30314;48.184;11.510;2023-02-28T02:07:40;96352.09;;;-3.75;100.00
7662;BME280;30314;48.184;11.510;2023-02-28T02:18:02;96344.63;;;-3.70;100.00
7662;BME280;30314;48.184;11.510;2023-02-28T02:32:10;96335.19;;;-4.00;100.00
7662;BME280;30314;48.184;11.510;2023-02-28T02:34:56;96342.22;;;-3.93;100.00
7662;BME280;30314;48.184;11.510;2023-02-28T02:37:31;96330.47;;;-4.11;100.00
7662;BME280;30314;48.184;11.510;2023-02-28T02:40:10;96319.09;;;-4.02;100.00
7662;BME280;30314;48.184;11.510;2023-02-28T02:42:55;96314.53;;;-4.00;100.00
7662;BME280;30314;48.184;11.510;2023-02-28T02:45:55;96332.22;;;-3.97;100.00
7662;BME280;30314;48.184;11.510;2023-02-28T02:48:27;96327.81;;;-4.03;100.00
7662;BME280;30314;48.184;11.510;2023-02-28T02:50:59;96320.06;;;-4.03;100.00
7662;BME280;30314;48.184;11.510;2023-02-28T02:53:30;96311.28;;;-4.23;100.00
7662;BME280;30314;48.184;11.510;2023-02-28T02:56:01;96311.81;;;-4.13;100.00
7662;BME280;30314;48.184;11.510;2023-02-28T02:58:35;96318.84;;;-4.07;100.00
7662;BME280;30314;48.184;11.510;2023-02-28T03:01:13;96331.97;;;-4.02;100.00
7662;BME280;30314;48.184;11.510;2023-02-28T03:03:42;96315.38;;;-4.14;100.00
7662;BME280;30314;48.184;11.510;2023-02-28T03:06:09;96319.63;;;-4.21;100.00
7662;BME280;30314;48.184;11.510;2023-02-28T03:08:37;96304.34;;;-4.23;100.00
7662;BME280;30314;48.184;11.510;2023-02-28T03:11:07;96314.22;;;-4.12;100.00
7662;BME280;30314;48.184;11.510;2023-02-28T03:16:49;96318.56;;;-4.12;100.00
7662;BME280;30314;48.184;11.510;2023-02-28T03:22:25;96320.00;;;-4.25;100.00
7662;BME280;30314;48.184;11.510;2023-02-28T03:27:29;96328.34;;;-4.22;100.00
7662;BME280;30314;48.184;11.510;2023-02-28T03:32:27;96335.09;;;-4.06;100.00
7662;BME280;30314;48.184;11.510;2023-02-28T03:35:09;96339.66;;;-4.08;100.00
7662;BME280;30314;48.184;11.510;2023-02-28T03:37:40;96323.84;;;-4.20;100.00
7662;BME280;30314;48.184;11.510;2023-02-28T03:40:14;96318.94;;;-4.15;100.00
7662;BME280;30314;48.184;11.510;2023-02-28T03:42:46;96315.97;;;-4.12;100.00
7662;BME280;30314;48.184;11.510;2023-02-28T03:45:18;96331.81;;;-4.00;100.00
7662;BME280;30314;48.184;11.510;2023-02-28T03:50:27;96331.97;;;-4.02;100.00
7662;BME280;30314;48.184;11.510;2023-02-28T03:53:07;96321.75;;;-4.10;100.00
7662;BME280;30314;48.184;11.510;2023-02-28T03:55:40;96320.59;;;-3.92;100.00
7662;BME280;30314;48.184;11.510;2023-02-28T03:58:40;96339.06;;;-3.89;100.00
7662;BME280;30314;48.184;11.510;2023-02-28T04:01:13;96334.88;;;-3.90;100.00
7662;BME280;30314;48.184;11.510;2023-02-28T04:03:41;96326.56;;;-4.07;100.00
7662;BME280;30314;48.184;11.510;2023-02-28T04:06:14;96344.63;;;-4.07;100.00
7662;BME280;30314;48.184;11.510;2023-02-28T04:08:42;96331.22;;;-4.17;100.00
7662;BME280;30314;48.184;11.510;2023-02-28T04:11:22;96347.13;;;-4.14;100.00
7662;BME280;30314;48.184;11.510;2023-02-28T04:13:49;96338.84;;;-4.09;100.00
7662;BME280;30314;48.184;11.510;2023-02-28T04:16:16;96312.19;;;-4.31;100.00
7662;BME280;30314;48.184;11.510;2023-02-28T04:19:00;96357.94;;;-4.03;100.00
7662;BME280;30314;48.184;11.510;2023-02-28T04:21:37;96333.59;;;-4.16;100.00
7662;BME280;30314;48.184;11.510;2023-02-28T04:24:06;96353.25;;;-4.00;100.00
7662;BME280;30314;48.184;11.510;2023-02-28T04:26:36;96365.31;;;-3.85;100.00
7662;BME280;30314;48.184;11.510;2023-02-28T04:29:04;96324.53;;;-4.12;100.00
7662;BME280;30314;48.184;11.510;2023-02-28T04:31:31;96373.66;;;-3.83;100.00
7662;BME280;30314;48.184;11.510;2023-02-28T04:33:59;96364.69;;;-3.87;100.00
7662;BME280;30314;48.184;11.510;2023-02-28T04:36:25;96374.47;;;-3.83;100.00
7662;BME280;30314;48.184;11.510;2023-02-28T04:38:52;96320.34;;;-4.13;100.00
7662;BME280;30314;48.184;11.510;2023-02-28T04:41:20;96368.66;;;-3.70;100.00
7662;BME280;30314;48.184;11.510;2023-02-28T04:43:47;96350.94;;;-3.94;100.00
7662;BME280;30314;48.184;11.510;2023-02-28T04:46:14;96361.28;;;-3.73;100.00
7662;BME280;30314;48.184;11.510;2023-02-28T04:48:41;96345.56;;;-3.78;100.00
7662;BME280;30314;48.184;11.510;2023-02-28T04:51:13;96336.22;;;-3.79;100.00
7662;BME280;30314;48.184;11.510;2023-02-28T04:53:41;96359.22;;;-3.62;100.00
7662;BME280;30314;48.184;11.510;2023-02-28T04:56:12;96358.47;;;-3.56;100.00
7662;BME280;30314;48.184;11.510;2023-02-28T04:58:39;96331.28;;;-3.74;100.00
7662;BME280;30314;48.184;11.510;2023-02-28T05:03:45;96353.59;;;-3.66;100.00
7662;BME280;30314;48.184;11.510;2023-02-28T05:06:12;96342.66;;;-3.68;100.00
7662;BME280;30314;48.184;11.510;2023-02-28T05:08:40;96385.63;;;-3.45;100.00
7662;BME280;30314;48.184;11.510;2023-02-28T05:11:13;96371.34;;;-3.41;100.00
7662;BME280;30314;48.184;11.510;2023-02-28T05:13:41;96367.34;;;-3.44;100.00
7662;BME280;30314;48.184;11.510;2023-02-28T05:16:07;96385.53;;;-3.30;100.00
7662;BME280;30314;48.184;11.510;2023-02-28T05:18:34;96379.91;;;-3.41;100.00
7662;BME280;30314;48.184;11.510;2023-02-28T05:21:00;96373.16;;;-3.35;100.00
7662;BME280;30314;48.184;11.510;2023-02-28T05:23:29;96363.53;;;-3.48;100.00
7662;BME280;30314;48.184;11.510;2023-02-28T05:25:56;96378.22;;;-3.27;100.00
7662;BME280;30314;48.184;11.510;2023-02-28T05:28:23;96387.84;;;-3.20;100.00
7662;BME280;30314;48.184;11.510;2023-02-28T05:30:49;96353.06;;;-3.61;100.00
7662;BME280;30314;48.184;11.510;2023-02-28T05:33:16;96381.28;;;-3.38;100.00
7662;BME280;30314;48.184;11.510;2023-02-28T05:35:42;96387.44;;;-3.39;100.00
7662;BME280;30314;48.184;11.510;2023-02-28T05:38:09;96374.59;;;-3.32;100.00
7662;BME280;30314;48.184;11.510;2023-02-28T05:40:38;96373.38;;;-3.36;100.00
7662;BME280;30314;48.184;11.510;2023-02-28T05:43:04;96369.81;;;-3.35;100.00
7662;BME280;30314;48.184;11.510;2023-02-28T05:45:31;96346.91;;;-3.60;100.00
7662;BME280;30314;48.184;11.510;2023-02-28T05:47:57;96340.53;;;-3.64;100.00
7662;BME280;30314;48.184;11.510;2023-02-28T05:50:24;96373.44;;;-3.30;100.00
7662;BME280;30314;48.184;11.510;2023-02-28T05:52:51;96380.88;;;-3.20;100.00
7662;BME280;30314;48.184;11.510;2023-02-28T05:55:18;96392.25;;;-3.14;100.00
7662;BME280;30314;48.184;11.510;2023-02-28T05:57:45;96393.78;;;-3.20;100.00
7662;BME280;30314;48.184;11.510;2023-02-28T06:00:11;96385.91;;;-3.33;100.00
7662;BME280;30314;48.184;11.510;2023-02-28T06:02:39;96391.44;;;-3.36;100.00
7662;BME280;30314;48.184;11.510;2023-02-28T06:05:14;96396.91;;;-3.24;100.00
7662;BME280;30314;48.184;11.510;2023-02-28T06:07:41;96393.00;;;-3.20;100.00
7662;BME280;30314;48.184;11.510;2023-02-28T06:10:09;96396.00;;;-3.17;100.00
7662;BME280;30314;48.184;11.510;2023-02-28T06:12:37;96401.50;;;-3.05;100.00
7662;BME280;30314;48.184;11.510;2023-02-28T06:15:04;96411.00;;;-3.05;100.00
7662;BME280;30314;48.184;11.510;2023-02-28T06:17:31;96401.00;;;-3.15;100.00
7662;BME280;30314;48.184;11.510;2023-02-28T06:19:57;96397.41;;;-3.14;100.00
7662;BME280;30314;48.184;11.510;2023-02-28T06:22:24;96406.84;;;-3.28;100.00
7662;BME280;30314;48.184;11.510;2023-02-28T06:24:50;96392.50;;;-3.31;100.00
7662;BME280;30314;48.184;11.510;2023-02-28T06:27:18;96412.72;;;-3.34;100.00
7662;BME280;30314;48.184;11.510;2023-02-28T06:29:46;96421.50;;;-3.14;100.00
7662;BME280;30314;48.184;11.510;2023-02-28T06:32:13;96415.34;;;-3.13;100.00
7662;BME280;30314;48.184;11.510;2023-02-28T06:34:39;96400.56;;;-3.19;100.00
7662;BME280;30314;48.184;11.510;2023-02-28T06:37:06;96403.16;;;-3.41;100.00
7662;BME280;30314;48.184;11.510;2023-02-28T06:39:33;96365.88;;;-3.53;100.00
7662;BME280;30314;48.184;11.510;2023-02-28T06:41:59;96424.31;;;-3.08;100.00
7662;BME280;30314;48.184;11.510;2023-02-28T06:44:26;96427.13;;;-3.03;100.00
7662;BME280;30314;48.184;11.510;2023-02-28T06:46:52;96428.50;;;-3.07;100.00
7662;BME280;30314;48.184;11.510;2023-02-28T06:49:19;96419.63;;;-3.20;100.00
7662;BME280;30314;48.184;11.510;2023-02-28T06:51:45;96434.41;;;-3.14;100.00
7662;BME280;30314;48.184;11.510;2023-02-28T06:54:12;96431.75;;;-3.20;100.00
7662;BME280;30314;48.184;11.510;2023-02-28T06:56:39;96451.03;;;-3.01;100.00
7662;BME280;30314;48.184;11.510;2023-02-28T06:59:06;96405.72;;;-3.19;100.00
7662;BME280;30314;48.184;11.510;2023-02-28T07:01:32;96412.41;;;-3.24;100.00
7662;BME280;30314;48.184;11.510;2023-02-28T07:04:00;96457.22;;;-2.95;100.00
7662;BME280;30314;48.184;11.510;2023-02-28T07:06:27;96441.31;;;-2.99;100.00
7662;BME280;30314;48.184;11.510;2023-02-28T07:08:54;96382.72;;;-3.35;100.00
7662;BME280;30314;48.184;11.510;2023-02-28T07:11:22;96450.28;;;-2.95;100.00
7662;BME280;30314;48.184;11.510;2023-02-28T07:13:49;96449.66;;;-2.97;100.00
7662;BME280;30314;48.184;11.510;2023-02-28T07:16:17;96402.63;;;-3.29;100.00
7662;BME280;30314;48.184;11.510;2023-02-28T07:18:43;96401.31;;;-3.25;100.00
7662;BME280;30314;48.184;11.510;2023-02-28T07:21:10;96456.94;;;-2.86;100.00
7662;BME280;30314;48.184;11.510;2023-02-28T07:23:38;96456.13;;;-2.86;100.00
7662;BME280;30314;48.184;11.510;2023-02-28T07:26:06;96447.69;;;-2.95;100.00
7662;BME280;30314;48.184;11.510;2023-02-28T07:28:33;96413.69;;;-3.20;100.00
7662;BME280;30314;48.184;11.510;2023-02-28T07:31:06;96448.63;;;-3.03;100.00
7662;BME280;30314;48.184;11.510;2023-02-28T07:33:33;96462.09;;;-2.86;100.00
7662;BME280;30314;48.184;11.510;2023-02-28T07:36:02;96462.88;;;-2.85;100.00
7662;BME280;30314;48.184;11.510;2023-02-28T07:38:28;96453.75;;;-2.88;100.00
7662;BME280;30314;48.184;11.510;2023-02-28T07:40:55;96462.88;;;-2.85;100.00
7662;BME280;30314;48.184;11.510;2023-02-28T07:43:21;96450.41;;;-2.81;100.00
7662;BME280;30314;48.184;11.510;2023-02-28T07:45:48;96457.91;;;-2.87;100.00
7662;BME280;30314;48.184;11.510;2023-02-28T07:48:14;96453.34;;;-2.85;100.00
7662;BME280;30314;48.184;11.510;2023-02-28T07:50:41;96465.75;;;-2.80;100.00
7662;BME280;30314;48.184;11.510;2023-02-28T07:53:07;96458.25;;;-2.90;100.00
7662;BME280;30314;48.184;11.510;2023-02-28T07:55:34;96455.56;;;-2.81;100.00
7662;BME280;30314;48.184;11.510;2023-02-28T07:58:01;96453.09;;;-2.68;100.00
7662;BME280;30314;48.184;11.510;2023-02-28T08:00:27;96445.34;;;-2.90;100.00
7662;BME280;30314;48.184;11.510;2023-02-28T08:02:55;96412.06;;;-3.00;100.00
7662;BME280;30314;48.184;11.510;2023-02-28T08:05:21;96443.03;;;-2.56;100.00
7662;BME280;30314;48.184;11.510;2023-02-28T08:07:51;96451.66;;;-2.49;100.00
7662;BME280;30314;48.184;11.510;2023-02-28T08:10:18;96455.91;;;-2.63;100.00
7662;BME280;30314;48.184;11.510;2023-02-28T08:12:45;96434.38;;;-2.70;100.00
7662;BME280;30314;48.184;11.510;2023-02-28T08:15:11;96461.66;;;-2.67;100.00
7662;BME280;30314;48.184;11.510;2023-02-28T08:17:38;96466.63;;;-2.66;100.00
7662;BME280;30314;48.184;11.510;2023-02-28T08:20:05;96424.81;;;-2.98;100.00
7662;BME280;30314;48.184;11.510;2023-02-28T08:22:31;96460.63;;;-2.73;100.00
7662;BME280;30314;48.184;11.510;2023-02-28T08:24:58;96447.88;;;-2.75;100.00
7662;BME280;30314;48.184;11.510;2023-02-28T08:27:24;96469.00;;;-2.71;100.00
7662;BME280;30314;48.184;11.510;2023-02-28T08:29:51;96476.03;;;-2.58;100.00
7662;BME280;30314;48.184;11.510;2023-02-28T08:32:17;96433.06;;;-2.88;100.00
7662;BME280;30314;48.184;11.510;2023-02-28T08:34:55;96471.44;;;-2.63;100.00
7662;BME280;30314;48.184;11.510;2023-02-28T08:37:22;96475.81;;;-2.63;100.00
7662;BME280;30314;48.184;11.510;2023-02-28T08:39:48;96490.63;;;-2.50;100.00
7662;BME280;30314;48.184;11.510;2023-02-28T08:42:15;96479.63;;;-2.59;100.00
7662;BME280;30314;48.184;11.510;2023-02-28T08:44:41;96495.91;;;-2.65;100.00
7662;BME280;30314;48.184;11.510;2023-02-28T08:47:08;96501.13;;;-2.59;100.00
7662;BME280;30314;48.184;11.510;2023-02-28T08:49:34;96476.38;;;-2.90;100.00
7662;BME280;30314;48.184;11.510;2023-02-28T08:52:01;96477.13;;;-2.74;100.00
7662;BME280;30314;48.184;11.510;2023-02-28T08:54:27;96478.16;;;-2.68;100.00
7662;BME280;30314;48.184;11.510;2023-02-28T08:56:57;96497.41;;;-2.49;100.00
7662;BME280;30314;48.184;11.510;2023-02-28T08:59:23;96486.31;;;-2.43;100.00
7662;BME280;30314;48.184;11.510;2023-02-28T09:01:50;96495.75;;;-2.35;100.00
7662;BME280;30314;48.184;11.510;2023-02-28T09:04:16;96490.63;;;-2.50;100.00
7662;BME280;30314;48.184;11.510;2023-02-28T09:06:45;96480.72;;;-2.47;100.00
7662;BME280;30314;48.184;11.510;2023-02-28T09:09:12;96479.66;;;-2.31;100.00
7662;BME280;30314;48.184;11.510;2023-02-28T09:11:38;96489.34;;;-2.39;100.00
7662;BME280;30314;48.184;11.510;2023-02-28T09:14:05;96471.19;;;-2.46;100.00
7662;BME280;30314;48.184;11.510;2023-02-28T09:16:32;96502.72;;;-2.29;100.00
7662;BME280;30314;48.184;11.510;2023-02-28T09:19:00;96474.81;;;-2.40;100.00
7662;BME280;30314;48.184;11.510;2023-02-28T09:21:27;96499.50;;;-2.09;100.00
7662;BME280;30314;48.184;11.510;2023-02-28T09:23:54;96504.50;;;-2.08;100.00
7662;BME280;30314;48.184;11.510;2023-02-28T09:26:23;96481.06;;;-2.28;100.00
7662;BME280;30314;48.184;11.510;2023-02-28T09:28:51;96521.13;;;-1.95;100.00
7662;BME280;30314;48.184;11.510;2023-02-28T09:31:21;96519.31;;;-1.95;100.00
7662;BME280;30314;48.184;11.510;2023-02-28T09:33:49;96525.34;;;-1.88;100.00
7662;BME280;30314;48.184;11.510;2023-02-28T09:36:16;96531.22;;;-2.01;100.00
7662;BME280;30314;48.184;11.510;2023-02-28T09:38:43;96540.97;;;-2.03;100.00
7662;BME280;30314;48.184;11.510;2023-02-28T09:41:14;96530.09;;;-1.91;100.00
7662;BME280;30314;48.184;11.510;2023-02-28T09:43:44;96520.91;;;-1.94;100.00
7662;BME280;30314;48.184;11.510;2023-02-28T09:47:01;96492.88;;;-2.19;100.00
7662;BME280;30314;48.184;11.510;2023-02-28T09:49:13;96539.31;;;-1.82;100.00
7662;BME280;30314;48.184;11.510;2023-02-28T09:51:47;96537.31;;;-1.87;100.00
7662;BME280;30314;48.184;11.510;2023-02-28T09:54:18;96540.28;;;-1.83;100.00
7662;BME280;30314;48.184;11.510;2023-02-28T09:56:52;96526.16;;;-2.09;100.00
7662;BME280;30314;48.184;11.510;2023-02-28T10:04:52;96536.97;;;-2.05;100.00
7662;BME280;30314;48.184;11.510;2023-02-28T10:09:58;96538.56;;;-1.76;100.00
7662;BME280;30314;48.184;11.510;2023-02-28T10:12:29;96538.84;;;-1.92;99.50
7662;BME280;30314;48.184;11.510;2023-02-28T10:14:57;96536.97;;;-1.77;100.00
7662;BME280;30314;48.184;11.510;2023-02-28T10:17:38;96544.16;;;-1.72;100.00
7662;BME280;30314;48.184;11.510;2023-02-28T10:20:27;96545.44;;;-1.54;100.00
7662;BME280;30314;48.184;11.510;2023-02-28T10:23:21;96565.72;;;-1.30;98.98
7662;BME280;30314;48.184;11.510;2023-02-28T10:26:28;96566.56;;;-1.58;97.29
7662;BME280;30314;48.184;11.510;2023-02-28T10:28:47;96551.81;;;-1.57;98.75
7662;BME280;30314;48.184;11.510;2023-02-28T10:31:18;96546.22;;;-1.61;96.59
7662;BME280;30314;48.184;11.510;2023-02-28T10:33:46;96558.00;;;-1.51;98.88
7662;BME280;30314;48.184;11.510;2023-02-28T10:36:19;96544.75;;;-1.35;99.49
7662;BME280;30314;48.184;11.510;2023-02-28T10:38:47;96546.38;;;-1.27;97.95
7662;BME280;30314;48.184;11.510;2023-02-28T10:41:36;96553.28;;;-0.92;99.48
7662;BME280;30314;48.184;11.510;2023-02-28T10:44:20;96542.56;;;-0.76;96.24
7662;BME280;30314;48.184;11.510;2023-02-28T10:46:48;96567.34;;;-0.60;94.10
7662;BME280;30314;48.184;11.510;2023-02-28T10:49:20;96563.75;;;-0.65;93.91
7662;BME280;30314;48.184;11.510;2023-02-28T10:51:51;96566.09;;;-0.77;93.97
7662;BME280;30314;48.184;11.510;2023-02-28T10:54:23;96545.72;;;-0.80;94.50
7662;BME280;30314;48.184;11.510;2023-02-28T10:57:21;96572.94;;;-0.63;92.57
7662;BME280;30314;48.184;11.510;2023-02-28T10:59:52;96566.91;;;-0.70;92.76
7662;BME280;30314;48.184;11.510;2023-02-28T11:02:32;96569.69;;;-0.78;94.66
7662;BME280;30314;48.184;11.510;2023-02-28T11:05:33;96569.50;;;-0.70;95.40
7662;BME280;30314;48.184;11.510;2023-02-28T11:10:33;96532.94;;;-1.02;95.72
7662;BME280;30314;48.184;11.510;2023-02-28T11:13:02;96556.50;;;-0.90;96.61
7662;BME280;30314;48.184;11.510;2023-02-28T11:15:32;96561.34;;;-0.67;94.30
7662;BME280;30314;48.184;11.510;2023-02-28T11:18:17;96573.72;;;-0.62;94.44
7662;BME280;30314;48.184;11.510;2023-02-28T11:20:51;96550.78;;;-0.65;95.43
7662;BME280;30314;48.184;11.510;2023-02-28T11:23:19;96534.38;;;-0.73;96.36
7662;BME280;30314;48.184;11.510;2023-02-28T11:25:51;96577.78;;;-0.33;92.56
7662;BME280;30314;48.184;11.510;2023-02-28T11:28:43;96579.78;;;-0.08;92.68
7662;BME280;30314;48.184;11.510;2023-02-28T11:33:52;96571.19;;;-0.02;89.01
7662;BME280;30314;48.184;11.510;2023-02-28T11:36:37;96561.00;;;-0.17;88.30
7662;BME280;30314;48.184;11.510;2023-02-28T11:39:12;96547.41;;;-0.32;90.80
7662;BME280;30314;48.184;11.510;2023-02-28T11:53:14;96542.81;;;-0.23;90.88
7662;BME280;30314;48.184;11.510;2023-02-28T11:58:35;96536.25;;;-0.06;92.04
7662;BME280;30314;48.184;11.510;2023-02-28T12:01:15;96538.63;;;0.03;91.17
7662;BME280;30314;48.184;11.510;2023-02-28T12:04:03;96529.03;;;0.10;89.55
7662;BME280;30314;48.184;11.510;2023-02-28T12:06:45;96518.66;;;-0.04;91.46
7662;BME280;30314;48.184;11.510;2023-02-28T12:09:35;96525.63;;;0.09;89.49
7662;BME280;30314;48.184;11.510;2023-02-28T12:12:27;96521.84;;;0.05;92.21
7662;BME280;30314;48.184;11.510;2023-02-28T12:15:05;96529.41;;;0.27;89.43
7662;BME280;30314;48.184;11.510;2023-02-28T12:23:24;96523.03;;;0.09;91.84
7662;BME280;30314;48.184;11.510;2023-02-28T12:26:06;96522.81;;;0.24;91.36
7662;BME280;30314;48.184;11.510;2023-02-28T12:28:46;96518.41;;;0.38;90.58
7662;BME280;30314;48.184;11.510;2023-02-28T12:31:21;96526.56;;;0.42;89.02
7662;BME280;30314;48.184;11.510;2023-02-28T12:34:00;96518.16;;;0.40;88.50
7662;BME280;30314;48.184;11.510;2023-02-28T12:36:29;96513.34;;;0.50;89.41
7662;BME280;30314;48.184;11.510;2023-02-28T12:39:00;96516.75;;;0.58;88.31
7662;BME280;30314;48.184;11.510;2023-02-28T12:41:42;96482.69;;;0.66;86.24
7662;BME280;30314;48.184;11.510;2023-02-28T12:44:15;96505.66;;;0.76;87.10
7662;BME280;30314;48.184;11.510;2023-02-28T12:46:48;96499.50;;;0.63;86.51
7662;BME280;30314;48.184;11.510;2023-02-28T12:49:19;96479.34;;;0.59;88.14
7662;BME280;30314;48.184;11.510;2023-02-28T12:51:48;96500.09;;;0.72;85.30
7662;BME280;30314;48.184;11.510;2023-02-28T12:54:29;96496.91;;;0.70;84.63
7662;BME280;30314;48.184;11.510;2023-02-28T12:59:51;96494.56;;;0.94;87.54
7662;BME280;30314;48.184;11.510;2023-02-28T13:02:43;96488.28;;;1.08;85.65
7662;BME280;30314;48.184;11.510;2023-02-28T13:10:45;96479.66;;;1.15;84.29
7662;BME280;30314;48.184;11.510;2023-02-28T13:13:18;96493.00;;;1.25;85.34
7662;BME280;30314;48.184;11.510;2023-02-28T13:16:07;96485.44;;;1.17;85.35
7662;BME280;30314;48.184;11.510;2023-02-28T13:18:52;96482.41;;;1.20;84.53
7662;BME280;30314;48.184;11.510;2023-02-28T13:21:41;96494.22;;;1.22;82.79
7662;BME280;30314;48.184;11.510;2023-02-28T13:24:09;96465.22;;;1.19;83.09
7662;BME280;30314;48.184;11.510;2023-02-28T13:29:21;96503.91;;;1.40;82.42
7662;BME280;30314;48.184;11.510;2023-02-28T13:39:45;96504.13;;;1.39;81.52
7662;BME280;30314;48.184;11.510;2023-02-28T13:42:35;96504.31;;;1.44;80.25
7662;BME280;30314;48.184;11.510;2023-02-28T13:47:44;96504.75;;;1.34;82.93
7662;BME280;30314;48.184;11.510;2023-02-28T13:50:27;96503.81;;;1.54;82.46
7662;BME280;30314;48.184;11.510;2023-02-28T13:56:01;96504.97;;;1.33;81.42
7662;BME280;30314;48.184;11.510;2023-02-28T13:58:46;96493.63;;;1.20;82.55
7662;BME280;30314;48.184;11.510;2023-02-28T14:01:22;96500.50;;;1.40;83.02
7662;BME280;30314;48.184;11.510;2023-02-28T14:04:02;96507.34;;;1.34;81.63
7662;BME280;30314;48.184;11.510;2023-02-28T14:06:35;96488.53;;;1.32;82.11
7662;BME280;30314;48.184;11.510;2023-02-28T14:09:28;96486.31;;;1.10;82.73
7662;BME280;30314;48.184;11.510;2023-02-28T14:11:55;96489.75;;;1.30;82.12
7662;BME280;30314;48.184;11.510;2023-02-28T14:17:05;96495.78;;;1.30;83.48
7662;BME280;30314;48.184;11.510;2023-02-28T14:19:36;96503.06;;;1.47;82.41
7662;BME280;30314;48.184;11.510;2023-02-28T14:22:16;96483.47;;;1.44;79.90
7662;BME280;30314;48.184;11.510;2023-02-28T14:30:37;96497.38;;;1.31;81.88
7662;BME280;30314;48.184;11.510;2023-02-28T14:33:23;96492.16;;;1.31;82.78
7662;BME280;30314;48.184;11.510;2023-02-28T14:36:00;96497.22;;;1.26;82.71
7662;BME280;30314;48.184;11.510;2023-02-28T14:38:35;96489.44;;;1.19;83.80
7662;BME280;30314;48.184;11.510;2023-02-28T14:41:04;96496.16;;;1.34;82.44
7662;BME280;30314;48.184;11.510;2023-02-28T14:43:33;96499.38;;;1.29;82.73
7662;BME280;30314;48.184;11.510;2023-02-28T14:46:01;96496.44;;;1.19;81.68
7662;BME280;30314;48.184;11.510;2023-02-28T14:48:28;96491.47;;;1.17;84.23
7662;BME280;30314;48.184;11.510;2023-02-28T14:51:00;96499.97;;;1.31;83.21
7662;BME280;30314;48.184;11.510;2023-02-28T14:53:35;96490.03;;;1.21;83.80
7662;BME280;30314;48.184;11.510;2023-02-28T14:56:02;96489.56;;;1.31;83.27
7662;BME280;30314;48.184;11.510;2023-02-28T14:58:31;96481.75;;;1.31;82.16
7662;BME280;30314;48.184;11.510;2023-02-28T15:01:01;96494.28;;;1.41;81.93